createdAt,value
2018-08-03T00:00:05.606Z,0.00
2018-08-03T00:01:05.580Z,0.00
2018-08-03T00:02:05.546Z,0.00
2018-08-03T00:03:05.524Z,0.00
2018-08-03T00:04:05.540Z,0.00
2018-08-03T00:05:05.459Z,0.00
2018-08-03T00:06:05.403Z,0.00
2018-08-03T00:07:05.380Z,0.00
2018-08-03T00:08:05.375Z,0.00
2018-08-03T00:09:05.315Z,0.00
2018-08-03T00:10:05.269Z,0.00
2018-08-03T00:11:05.252Z,0.00
2018-08-03T00:12:05.222Z,0.00
2018-08-03T00:13:05.188Z,0.00
2018-08-03T00:14:19.900Z,0.00
2018-08-03T00:15:05.135Z,0.00
2018-08-03T00:16:05.097Z,0.00
2018-08-03T00:17:05.059Z,0.00
2018-08-03T00:18:05.022Z,0.00
2018-08-03T00:19:05.002Z,0.00
2018-08-03T00:20:04.973Z,0.00
2018-08-03T00:21:04.948Z,0.00
2018-08-03T00:22:04.899Z,0.00
2018-08-03T00:23:04.867Z,0.00
2018-08-03T00:24:04.834Z,0.00
2018-08-03T00:25:04.830Z,0.00
2018-08-03T00:26:04.760Z,0.00
2018-08-03T00:27:04.728Z,0.00
2018-08-03T00:28:04.695Z,0.00
2018-08-03T00:29:04.673Z,0.00
2018-08-03T00:30:04.640Z,0.00
2018-08-03T00:31:04.592Z,0.00
2018-08-03T00:32:04.562Z,0.00
2018-08-03T00:33:04.550Z,0.00
2018-08-03T00:34:04.520Z,0.00
2018-08-03T00:35:04.495Z,0.00
2018-08-03T00:36:04.446Z,0.00
2018-08-03T00:37:04.404Z,0.00
2018-08-03T00:38:04.376Z,0.00
2018-08-03T00:39:04.339Z,0.00
2018-08-03T00:40:04.339Z,0.00
2018-08-03T00:41:04.275Z,0.00
2018-08-03T00:42:04.242Z,0.00
2018-08-03T00:43:04.205Z,0.00
2018-08-03T00:44:04.167Z,0.00
2018-08-03T00:45:04.150Z,0.00
2018-08-03T00:46:04.097Z,0.00
2018-08-03T00:47:04.074Z,0.00
2018-08-03T00:48:04.049Z,0.00
2018-08-03T00:49:04.009Z,0.00
2018-08-03T00:50:03.979Z,0.00
2018-08-03T00:51:03.953Z,0.00
2018-08-03T00:52:03.937Z,0.00
2018-08-03T00:53:03.902Z,0.00
2018-08-03T00:54:03.842Z,0.00
2018-08-03T00:55:03.818Z,0.00
2018-08-03T00:56:03.769Z,0.00
2018-08-03T00:57:03.760Z,0.00
2018-08-03T00:58:03.705Z,0.00
2018-08-03T00:59:03.701Z,0.00
2018-08-03T01:00:03.652Z,0.00
2018-08-03T01:01:03.639Z,0.00
2018-08-03T01:02:03.583Z,0.00
2018-08-03T01:03:03.554Z,0.00
2018-08-03T01:04:03.530Z,0.00
2018-08-03T01:05:03.484Z,0.00
2018-08-03T01:06:03.445Z,0.00
2018-08-03T01:07:03.414Z,0.00
2018-08-03T01:08:03.374Z,0.00
2018-08-03T01:09:03.379Z,0.00
2018-08-03T01:10:03.329Z,0.00
2018-08-03T01:11:03.283Z,0.00
2018-08-03T01:12:03.244Z,0.00
2018-08-03T01:13:03.234Z,0.00
2018-08-03T01:14:03.191Z,0.00
2018-08-03T01:15:03.153Z,0.00
2018-08-03T01:16:03.127Z,0.00
2018-08-03T01:17:03.077Z,0.00
2018-08-03T01:18:03.052Z,0.00
2018-08-03T01:19:03.017Z,0.00
2018-08-03T01:20:02.989Z,0.00
2018-08-03T01:21:02.964Z,0.00
2018-08-03T01:22:02.926Z,0.00
2018-08-03T01:23:02.896Z,0.00
2018-08-03T01:24:02.863Z,0.00
2018-08-03T01:25:02.815Z,0.00
2018-08-03T01:26:02.793Z,0.00
2018-08-03T01:27:02.757Z,0.00
2018-08-03T01:28:02.740Z,0.00
2018-08-03T01:29:02.701Z,0.00
2018-08-03T01:30:02.670Z,0.00
2018-08-03T01:31:02.634Z,0.00
2018-08-03T01:32:02.596Z,0.00
2018-08-03T01:33:02.557Z,0.00
2018-08-03T01:34:04.429Z,0.00
2018-08-03T01:35:02.485Z,0.00
2018-08-03T01:36:02.469Z,0.00
2018-08-03T01:37:02.436Z,0.00
2018-08-03T01:38:02.402Z,0.00
2018-08-03T01:39:02.403Z,0.00
2018-08-03T01:40:02.324Z,0.00
2018-08-03T01:41:02.309Z,0.00
2018-08-03T01:42:02.264Z,0.00
2018-08-03T01:43:02.240Z,0.00
2018-08-03T01:44:02.199Z,0.00
2018-08-03T01:45:02.152Z,0.00
2018-08-03T01:46:02.157Z,0.00
2018-08-03T01:47:02.096Z,0.00
2018-08-03T01:48:02.064Z,0.00
2018-08-03T01:49:02.039Z,0.00
2018-08-03T01:50:01.997Z,0.00
2018-08-03T01:51:01.967Z,0.00
2018-08-03T01:52:01.949Z,0.00
2018-08-03T01:53:01.906Z,0.00
2018-08-03T01:54:01.884Z,0.00
2018-08-03T01:55:01.849Z,0.00
2018-08-03T01:56:01.796Z,0.00
2018-08-03T01:57:01.786Z,0.00
2018-08-03T01:58:01.730Z,0.00
2018-08-03T01:59:01.720Z,0.00
2018-08-03T02:00:01.660Z,0.00
2018-08-03T02:01:01.624Z,0.00
2018-08-03T02:02:01.619Z,0.00
2018-08-03T02:03:01.562Z,0.00
2018-08-03T02:04:01.540Z,0.00
2018-08-03T02:05:01.511Z,0.00
2018-08-03T02:06:01.546Z,0.00
2018-08-03T02:07:01.420Z,0.00
2018-08-03T02:08:01.379Z,0.00
2018-08-03T02:09:01.353Z,0.00
2018-08-03T02:10:01.316Z,0.00
2018-08-03T02:11:01.291Z,0.00
2018-08-03T02:12:01.318Z,0.00
2018-08-03T02:13:01.231Z,0.00
2018-08-03T02:14:01.221Z,0.00
2018-08-03T02:15:01.161Z,0.00
2018-08-03T02:16:01.112Z,0.00
2018-08-03T02:17:01.116Z,0.00
2018-08-03T02:18:01.048Z,0.00
2018-08-03T02:19:01.029Z,0.00
2018-08-03T02:20:00.989Z,0.00
2018-08-03T02:21:00.951Z,0.00
2018-08-03T02:22:00.928Z,0.00
2018-08-03T02:23:00.921Z,0.00
2018-08-03T02:24:00.846Z,0.00
2018-08-03T02:25:00.850Z,0.00
2018-08-03T02:26:00.862Z,0.00
2018-08-03T02:27:00.760Z,0.00
2018-08-03T02:28:00.722Z,0.00
2018-08-03T02:29:00.683Z,0.00
2018-08-03T02:30:00.666Z,0.00
2018-08-03T02:31:00.615Z,0.00
2018-08-03T02:32:00.577Z,0.00
2018-08-03T02:33:00.559Z,0.00
2018-08-03T02:34:00.528Z,0.00
2018-08-03T02:35:00.478Z,0.00
2018-08-03T02:36:00.463Z,0.00
2018-08-03T02:37:00.419Z,0.00
2018-08-03T02:38:00.396Z,0.00
2018-08-03T02:39:00.349Z,0.00
2018-08-03T02:40:00.318Z,0.00
2018-08-03T02:41:00.300Z,0.00
2018-08-03T02:42:00.253Z,0.00
2018-08-03T02:43:00.254Z,0.00
2018-08-03T02:44:00.191Z,0.00
2018-08-03T02:45:00.166Z,0.00
2018-08-03T02:46:00.154Z,0.00
2018-08-03T02:47:00.089Z,0.00
2018-08-03T02:48:00.106Z,0.00
2018-08-03T02:49:00.012Z,0.00
2018-08-03T02:49:59.997Z,0.00
2018-08-03T02:50:59.954Z,0.00
2018-08-03T02:51:59.912Z,0.00
2018-08-03T02:52:59.900Z,0.00
2018-08-03T02:53:59.894Z,0.00
2018-08-03T02:54:59.831Z,0.00
2018-08-03T02:55:59.796Z,0.00
2018-08-03T02:56:59.751Z,0.00
2018-08-03T02:57:59.717Z,0.00
2018-08-03T02:58:59.708Z,0.00
2018-08-03T02:59:59.645Z,4.00
2018-08-03T03:00:59.646Z,4.00
2018-08-03T03:01:59.583Z,4.00
2018-08-03T03:02:59.551Z,4.00
2018-08-03T03:03:59.507Z,4.00
2018-08-03T03:04:59.508Z,4.00
2018-08-03T03:05:59.459Z,4.00
2018-08-03T03:06:59.415Z,8.00
2018-08-03T03:07:59.385Z,4.00
2018-08-03T03:08:59.359Z,8.00
2018-08-03T03:09:59.323Z,8.00
2018-08-03T03:10:59.273Z,8.00
2018-08-03T03:11:59.274Z,16.00
2018-08-03T03:12:59.224Z,16.00
2018-08-03T03:13:59.201Z,16.00
2018-08-03T03:14:59.188Z,20.00
2018-08-03T03:15:59.127Z,24.00
2018-08-03T03:16:59.077Z,24.00
2018-08-03T03:17:59.060Z,28.00
2018-08-03T03:18:59.021Z,36.00
2018-08-03T03:19:58.986Z,40.00
2018-08-03T03:20:59.086Z,48.00
2018-08-03T03:21:58.931Z,52.00
2018-08-03T03:22:58.886Z,64.00
2018-08-03T03:23:58.850Z,76.00
2018-08-03T03:24:58.866Z,84.00
2018-08-03T03:25:58.788Z,96.00
2018-08-03T03:26:58.749Z,116.00
2018-08-03T03:27:58.722Z,128.00
2018-08-03T03:28:58.693Z,148.00
2018-08-03T03:29:58.657Z,168.00
2018-08-03T03:30:58.621Z,188.00
2018-08-03T03:31:58.580Z,212.00
2018-08-03T03:32:58.547Z,236.00
2018-08-03T03:33:58.547Z,264.00
2018-08-03T03:34:58.470Z,292.00
2018-08-03T03:35:58.432Z,324.00
2018-08-03T03:36:58.399Z,356.00
2018-08-03T03:37:58.372Z,388.00
2018-08-03T03:38:58.352Z,424.00
2018-08-03T03:39:58.314Z,464.00
2018-08-03T03:40:58.286Z,504.00
2018-08-03T03:41:58.257Z,548.00
2018-08-03T03:42:58.194Z,592.00
2018-08-03T03:43:58.210Z,636.00
2018-08-03T03:44:58.166Z,688.00
2018-08-03T03:45:58.107Z,740.00
2018-08-03T03:46:58.075Z,792.00
2018-08-03T03:47:58.032Z,848.00
2018-08-03T03:48:58.021Z,908.00
2018-08-03T03:49:58.007Z,968.00
2018-08-03T03:50:58.001Z,1032.00
2018-08-03T03:51:57.907Z,1104.00
2018-08-03T03:52:57.881Z,1176.00
2018-08-03T03:53:57.845Z,1244.00
2018-08-03T03:54:57.811Z,1320.00
2018-08-03T03:55:57.779Z,1404.00
2018-08-03T03:56:57.738Z,1484.00
2018-08-03T03:57:57.717Z,1572.00
2018-08-03T03:58:57.677Z,1656.00
2018-08-03T03:59:57.643Z,1748.00
2018-08-03T04:00:57.606Z,1836.00
2018-08-03T04:01:57.584Z,1932.00
2018-08-03T04:02:57.536Z,2028.00
2018-08-03T04:03:57.569Z,2136.00
2018-08-03T04:04:57.500Z,2236.00
2018-08-03T04:05:57.444Z,2336.00
2018-08-03T04:06:57.395Z,2452.00
2018-08-03T04:07:57.363Z,2568.00
2018-08-03T04:08:57.342Z,2696.00
2018-08-03T04:09:57.302Z,2824.00
2018-08-03T04:10:57.297Z,2960.00
2018-08-03T04:11:57.226Z,3092.00
2018-08-03T04:12:57.193Z,3228.00
2018-08-03T04:13:57.174Z,3368.00
2018-08-03T04:14:57.160Z,3500.00
2018-08-03T04:15:57.092Z,3632.00
2018-08-03T04:16:57.068Z,3764.00
2018-08-03T04:17:57.020Z,3892.00
2018-08-03T04:18:57.010Z,4020.00
2018-08-03T04:19:56.957Z,4148.00
2018-08-03T04:20:56.920Z,4276.00
2018-08-03T04:21:56.882Z,4412.00
2018-08-03T04:22:56.871Z,4564.00
2018-08-03T04:23:56.831Z,4716.00
2018-08-03T04:24:56.785Z,4868.00
2018-08-03T04:25:56.751Z,5032.00
2018-08-03T04:26:56.778Z,5196.00
2018-08-03T04:27:56.685Z,5344.00
2018-08-03T04:28:56.648Z,5488.00
2018-08-03T04:29:56.617Z,5636.00
2018-08-03T04:30:56.584Z,5764.00
2018-08-03T04:31:56.566Z,5900.00
2018-08-03T04:32:56.521Z,6032.00
2018-08-03T04:33:56.484Z,6160.00
2018-08-03T04:34:56.500Z,6288.00
2018-08-03T04:35:56.423Z,6420.00
2018-08-03T04:36:56.402Z,6556.00
2018-08-03T04:37:56.380Z,6696.00
2018-08-03T04:38:56.383Z,6840.00
2018-08-03T04:39:56.276Z,6992.00
2018-08-03T04:40:56.272Z,7144.00
2018-08-03T04:41:56.224Z,7296.00
2018-08-03T04:42:56.182Z,7460.00
2018-08-03T04:43:56.152Z,7628.00
2018-08-03T04:44:56.143Z,7788.00
2018-08-03T04:45:56.090Z,7948.00
2018-08-03T04:46:56.049Z,8100.00
2018-08-03T04:47:56.014Z,8256.00
2018-08-03T04:48:55.986Z,8412.00
2018-08-03T04:49:55.990Z,8572.00
2018-08-03T04:50:55.917Z,8740.00
2018-08-03T04:51:55.895Z,8912.00
2018-08-03T04:52:55.877Z,9080.00
2018-08-03T04:53:55.827Z,9228.00
2018-08-03T04:54:55.797Z,9372.00
2018-08-03T04:55:55.773Z,9500.00
2018-08-03T04:56:55.768Z,9616.00
2018-08-03T04:57:55.705Z,9724.00
2018-08-03T04:58:55.666Z,9820.00
2018-08-03T04:59:55.668Z,9928.00
2018-08-03T05:00:55.646Z,10076.00
2018-08-03T05:01:55.631Z,10248.00
2018-08-03T05:02:55.525Z,10428.00
2018-08-03T05:03:55.500Z,10648.00
2018-08-03T05:04:55.485Z,10796.00
2018-08-03T05:05:55.436Z,10936.00
2018-08-03T05:06:55.404Z,11080.00
2018-08-03T05:07:55.414Z,11208.00
2018-08-03T05:08:55.328Z,11384.00
2018-08-03T05:09:55.317Z,11600.00
2018-08-03T05:10:55.276Z,11852.00
2018-08-03T05:11:55.249Z,12280.00
2018-08-03T05:12:55.225Z,12744.00
2018-08-03T05:13:55.174Z,13132.00
2018-08-03T05:14:55.124Z,13384.00
2018-08-03T05:15:55.128Z,13304.00
2018-08-03T05:16:55.074Z,14232.00
2018-08-03T05:17:55.045Z,15076.00
2018-08-03T05:18:55.039Z,15604.00
2018-08-03T05:19:54.982Z,16320.00
2018-08-03T05:20:54.954Z,17024.00
2018-08-03T05:21:54.909Z,17728.00
2018-08-03T05:22:54.893Z,17888.00
2018-08-03T05:23:54.843Z,18016.00
2018-08-03T05:24:54.816Z,18240.00
2018-08-03T05:25:54.782Z,17536.00
2018-08-03T05:26:54.764Z,15648.00
2018-08-03T05:27:54.738Z,15120.00
2018-08-03T05:28:54.726Z,15176.00
2018-08-03T05:29:54.656Z,14908.00
2018-08-03T05:30:54.629Z,15044.00
2018-08-03T05:31:54.609Z,15172.00
2018-08-03T05:32:54.588Z,15352.00
2018-08-03T05:33:54.537Z,15620.00
2018-08-03T05:34:54.516Z,15884.00
2018-08-03T05:35:54.552Z,16028.00
2018-08-03T05:36:54.457Z,16132.00
2018-08-03T05:37:54.457Z,16412.00
2018-08-03T05:38:54.385Z,16516.00
2018-08-03T05:39:54.378Z,16592.00
2018-08-03T05:40:54.319Z,16824.00
2018-08-03T05:41:54.306Z,16964.00
2018-08-03T05:42:54.288Z,17096.00
2018-08-03T05:43:54.245Z,17644.00
2018-08-03T05:44:54.228Z,18364.00
2018-08-03T05:45:54.206Z,19232.00
2018-08-03T05:46:54.143Z,18756.00
2018-08-03T05:47:54.162Z,17836.00
2018-08-03T05:48:54.077Z,17948.00
2018-08-03T05:49:54.046Z,18096.00
2018-08-03T05:50:54.104Z,18316.00
2018-08-03T05:51:53.981Z,18740.00
2018-08-03T05:52:54.042Z,18668.00
2018-08-03T05:53:53.944Z,18596.00
2018-08-03T05:54:53.912Z,18600.00
2018-08-03T05:55:53.890Z,18744.00
2018-08-03T05:56:53.844Z,18956.00
2018-08-03T05:57:53.867Z,19220.00
2018-08-03T05:58:53.780Z,19108.00
2018-08-03T05:59:53.747Z,19008.00
2018-08-03T06:00:53.734Z,19052.00
2018-08-03T06:01:53.689Z,19260.00
2018-08-03T06:02:53.689Z,19336.00
2018-08-03T06:03:53.638Z,19140.00
2018-08-03T06:04:53.615Z,19092.00
2018-08-03T06:05:53.582Z,19176.00
2018-08-03T06:06:53.559Z,19660.00
2018-08-03T06:07:53.512Z,20672.00
2018-08-03T06:08:53.481Z,20640.00
2018-08-03T06:09:53.465Z,19984.00
2018-08-03T06:10:53.449Z,20140.00
2018-08-03T06:11:53.389Z,20672.00
2018-08-03T06:12:53.377Z,21408.00
2018-08-03T06:13:53.328Z,21568.00
2018-08-03T06:14:53.315Z,21376.00
2018-08-03T06:15:53.300Z,21344.00
2018-08-03T06:16:53.265Z,21504.00
2018-08-03T06:17:53.233Z,21504.00
2018-08-03T06:18:53.206Z,21568.00
2018-08-03T06:19:53.174Z,22016.00
2018-08-03T06:20:53.135Z,23648.00
2018-08-03T06:21:53.105Z,25728.00
2018-08-03T06:22:53.085Z,25920.00
2018-08-03T06:23:53.076Z,23968.00
2018-08-03T06:24:53.033Z,22752.00
2018-08-03T06:25:52.992Z,22720.00
2018-08-03T06:26:52.954Z,22848.00
2018-08-03T06:27:52.930Z,23072.00
2018-08-03T06:28:52.904Z,23200.00
2018-08-03T06:29:52.870Z,22688.00
2018-08-03T06:30:52.846Z,22240.00
2018-08-03T06:31:52.836Z,22144.00
2018-08-03T06:32:52.793Z,21952.00
2018-08-03T06:33:52.770Z,22592.00
2018-08-03T06:34:52.730Z,24032.00
2018-08-03T06:35:52.709Z,23840.00
2018-08-03T06:36:52.668Z,22880.00
2018-08-03T06:37:52.646Z,22048.00
2018-08-03T06:38:52.638Z,21728.00
2018-08-03T06:39:52.575Z,21888.00
2018-08-03T06:40:52.558Z,22016.00
2018-08-03T06:41:52.554Z,22080.00
2018-08-03T06:42:52.512Z,22208.00
2018-08-03T06:43:52.471Z,22304.00
2018-08-03T06:44:52.446Z,22464.00
2018-08-03T06:45:52.410Z,22592.00
2018-08-03T06:46:52.491Z,22688.00
2018-08-03T06:47:52.349Z,22816.00
2018-08-03T06:48:52.331Z,23168.00
2018-08-03T06:49:52.309Z,23360.00
2018-08-03T06:50:52.291Z,22912.00
2018-08-03T06:51:52.249Z,23040.00
2018-08-03T06:52:52.213Z,23168.00
2018-08-03T06:53:52.213Z,23392.00
2018-08-03T06:54:52.153Z,27040.00
2018-08-03T06:55:52.141Z,42816.00
2018-08-03T06:56:52.106Z,54112.00
2018-08-03T06:57:52.068Z,55040.00
2018-08-03T06:58:52.084Z,55392.00
2018-08-03T06:59:52.017Z,53632.00
2018-08-03T07:00:51.989Z,52608.00
2018-08-03T07:01:51.992Z,54976.00
2018-08-03T07:02:51.966Z,57952.00
2018-08-03T07:03:51.919Z,58624.00
2018-08-03T07:04:51.891Z,57536.00
2018-08-03T07:05:51.857Z,56640.00
2018-08-03T07:06:51.827Z,56128.00
2018-08-03T07:07:51.813Z,56352.00
2018-08-03T07:08:51.789Z,58624.00
2018-08-03T07:09:51.755Z,59488.00
2018-08-03T07:10:51.734Z,60064.00
2018-08-03T07:11:51.724Z,59744.00
2018-08-03T07:12:51.692Z,57088.00
2018-08-03T07:13:51.657Z,58176.00
2018-08-03T07:14:51.688Z,59968.00
2018-08-03T07:15:51.621Z,60736.00
2018-08-03T07:16:51.589Z,60960.00
2018-08-03T07:17:51.568Z,60736.00
2018-08-03T07:18:51.545Z,60480.00
2018-08-03T07:19:51.576Z,60320.00
2018-08-03T07:20:51.506Z,61152.00
2018-08-03T07:21:51.483Z,63360.00
2018-08-03T07:22:51.477Z,62688.00
2018-08-03T07:23:51.438Z,63168.00
2018-08-03T07:24:51.426Z,65184.00
2018-08-03T07:25:51.443Z,66624.00
2018-08-03T07:26:51.386Z,67392.00
2018-08-03T07:27:51.350Z,67296.00
2018-08-03T07:28:51.337Z,64640.00
2018-08-03T07:29:51.320Z,61312.00
2018-08-03T07:30:51.305Z,62368.00
2018-08-03T07:31:51.276Z,63840.00
2018-08-03T07:32:51.258Z,63392.00
2018-08-03T07:33:51.231Z,60480.00
2018-08-03T07:34:51.211Z,57760.00
2018-08-03T07:35:51.216Z,54496.00
2018-08-03T07:36:51.237Z,52000.00
2018-08-03T07:37:51.153Z,51008.00
2018-08-03T07:38:51.130Z,52384.00
2018-08-03T07:39:51.124Z,56992.00
2018-08-03T07:40:51.096Z,65664.00
2018-08-03T07:41:51.066Z,70976.00
2018-08-03T07:42:51.091Z,77152.00
2018-08-03T07:43:51.045Z,78528.00
2018-08-03T07:44:51.045Z,75680.00
2018-08-03T07:45:51.007Z,72544.00
2018-08-03T07:46:50.978Z,69664.00
2018-08-03T07:47:50.970Z,69664.00
2018-08-03T07:48:50.951Z,68960.00
2018-08-03T07:49:50.928Z,68640.00
2018-08-03T07:50:50.918Z,70144.00
2018-08-03T07:51:50.943Z,70496.00
2018-08-03T07:52:50.873Z,69472.00
2018-08-03T07:53:50.882Z,69248.00
2018-08-03T07:54:50.846Z,68768.00
2018-08-03T07:55:50.840Z,67584.00
2018-08-03T07:56:50.909Z,70432.00
2018-08-03T07:57:50.834Z,74112.00
2018-08-03T07:58:50.767Z,77728.00
2018-08-03T07:59:50.738Z,81696.00
2018-08-03T08:00:50.747Z,81984.00
2018-08-03T08:01:50.708Z,79136.00
2018-08-03T08:02:50.689Z,79392.00
2018-08-03T08:03:50.664Z,80416.00
2018-08-03T08:04:50.657Z,79136.00
2018-08-03T08:05:50.634Z,77568.00
2018-08-03T08:06:50.620Z,77056.00
2018-08-03T08:07:50.597Z,76960.00
2018-08-03T08:08:50.584Z,77952.00
2018-08-03T08:09:50.566Z,80416.00
2018-08-03T08:10:50.555Z,76928.00
2018-08-03T08:11:50.524Z,76192.00
2018-08-03T08:12:50.513Z,78304.00
2018-08-03T08:13:50.502Z,77536.00
2018-08-03T08:14:50.503Z,76000.00
2018-08-03T08:15:50.491Z,74720.00
2018-08-03T08:16:50.469Z,76192.00
2018-08-03T08:17:50.437Z,77376.00
2018-08-03T08:18:50.410Z,76992.00
2018-08-03T08:19:50.392Z,78432.00
2018-08-03T08:20:50.381Z,80576.00
2018-08-03T08:21:50.393Z,80096.00
2018-08-03T08:22:50.356Z,82272.00
2018-08-03T08:23:50.331Z,81792.00
2018-08-03T08:24:50.381Z,82976.00
2018-08-03T08:25:50.298Z,83040.00
2018-08-03T08:26:50.299Z,79488.00
2018-08-03T08:27:50.280Z,79360.00
2018-08-03T08:28:50.264Z,77920.00
2018-08-03T08:29:50.246Z,75936.00
2018-08-03T08:30:50.227Z,77280.00
2018-08-03T08:31:50.223Z,77184.00
2018-08-03T08:32:50.191Z,77792.00
2018-08-03T08:33:50.170Z,77888.00
2018-08-03T08:34:50.150Z,85408.00
2018-08-03T08:35:50.145Z,88544.00
2018-08-03T08:36:50.182Z,91008.00
2018-08-03T08:37:50.146Z,92864.00
2018-08-03T08:38:50.120Z,91488.00
2018-08-03T08:39:50.078Z,88160.00
2018-08-03T08:40:50.060Z,86016.00
2018-08-03T08:41:50.044Z,92000.00
2018-08-03T08:42:50.030Z,94208.00
2018-08-03T08:43:50.087Z,89728.00
2018-08-03T08:44:50.013Z,86336.00
2018-08-03T08:45:49.992Z,81888.00
2018-08-03T08:46:50.036Z,80352.00
2018-08-03T08:47:49.957Z,81984.00
2018-08-03T08:48:49.932Z,82688.00
2018-08-03T08:49:49.941Z,80832.00
2018-08-03T08:50:49.895Z,78816.00
2018-08-03T08:51:49.885Z,80768.00
2018-08-03T08:52:49.870Z,83296.00
2018-08-03T08:53:49.852Z,83136.00
2018-08-03T08:54:49.899Z,83520.00
2018-08-03T08:55:49.834Z,85536.00
2018-08-03T08:56:49.809Z,86624.00
2018-08-03T08:57:49.821Z,85632.00
2018-08-03T08:58:49.795Z,86848.00
2018-08-03T08:59:49.782Z,88480.00
2018-08-03T09:00:49.766Z,91872.00
2018-08-03T09:01:49.732Z,90400.00
2018-08-03T09:02:49.713Z,88288.00
2018-08-03T09:03:49.712Z,91520.00
2018-08-03T09:04:49.687Z,89408.00
2018-08-03T09:05:49.681Z,89120.00
2018-08-03T09:06:49.702Z,91392.00
2018-08-03T09:07:49.704Z,96096.00
2018-08-03T09:08:49.636Z,97984.00
2018-08-03T09:09:49.617Z,90112.00
2018-08-03T09:10:49.584Z,90592.00
2018-08-03T09:11:49.583Z,92320.00
2018-08-03T09:12:49.587Z,87936.00
2018-08-03T09:13:49.551Z,85472.00
2018-08-03T09:14:49.560Z,83328.00
2018-08-03T09:15:49.517Z,86144.00
2018-08-03T09:16:49.502Z,87808.00
2018-08-03T09:17:49.494Z,84512.00
2018-08-03T09:18:49.572Z,83936.00
2018-08-03T09:19:49.452Z,82816.00
2018-08-03T09:20:49.436Z,86656.00
2018-08-03T09:21:49.461Z,93920.00
2018-08-03T09:22:49.430Z,102784.00
2018-08-03T09:23:49.401Z,102848.00
2018-08-03T09:24:49.389Z,99712.00
2018-08-03T09:25:49.391Z,101280.00
2018-08-03T09:26:49.342Z,98432.00
2018-08-03T09:27:49.380Z,96448.00
2018-08-03T09:28:49.328Z,95584.00
2018-08-03T09:29:49.291Z,91648.00
2018-08-03T09:30:49.333Z,88800.00
2018-08-03T09:31:49.271Z,94656.00
2018-08-03T09:32:49.253Z,98144.00
2018-08-03T09:33:49.231Z,91776.00
2018-08-03T09:34:49.224Z,82432.00
2018-08-03T09:35:49.209Z,92576.00
2018-08-03T09:36:49.259Z,96352.00
2018-08-03T09:37:49.168Z,92704.00
2018-08-03T09:38:49.147Z,86208.00
2018-08-03T09:39:49.142Z,97536.00
2018-08-03T09:40:49.163Z,97472.00
2018-08-03T09:41:49.161Z,98848.00
2018-08-03T09:42:49.140Z,101024.00
2018-08-03T09:43:49.080Z,102176.00
2018-08-03T09:44:49.066Z,106816.00
2018-08-03T09:45:49.057Z,108544.00
2018-08-03T09:46:49.086Z,105760.00
2018-08-03T09:47:49.007Z,100192.00
2018-08-03T09:48:49.000Z,101728.00
2018-08-03T09:49:48.988Z,108384.00
2018-08-03T09:50:48.983Z,108672.00
2018-08-03T09:51:48.944Z,101120.00
2018-08-03T09:52:48.949Z,98208.00
2018-08-03T09:53:48.940Z,103296.00
2018-08-03T09:54:48.899Z,107488.00
2018-08-03T09:55:48.935Z,104800.00
2018-08-03T09:56:48.957Z,95584.00
2018-08-03T09:57:48.853Z,98912.00
2018-08-03T09:58:48.838Z,103328.00
2018-08-03T09:59:48.820Z,102624.00
2018-08-03T10:00:48.840Z,97600.00
2018-08-03T10:01:48.811Z,97568.00
2018-08-03T10:02:48.789Z,94880.00
2018-08-03T10:03:48.792Z,94176.00
2018-08-03T10:04:48.749Z,99456.00
2018-08-03T10:05:48.727Z,99552.00
2018-08-03T10:06:48.724Z,102304.00
2018-08-03T10:07:48.704Z,107168.00
2018-08-03T10:08:48.678Z,105568.00
2018-08-03T10:09:48.669Z,91264.00
2018-08-03T10:10:48.649Z,83904.00
2018-08-03T10:11:48.643Z,107040.00
2018-08-03T10:12:48.639Z,111168.00
2018-08-03T10:13:48.634Z,115072.00
2018-08-03T10:14:48.580Z,105504.00
2018-08-03T10:15:48.580Z,111168.00
2018-08-03T10:16:48.576Z,114848.00
2018-08-03T10:17:48.544Z,111040.00
2018-08-03T10:18:48.529Z,109568.00
2018-08-03T10:19:48.505Z,110880.00
2018-08-03T10:20:48.488Z,107456.00
2018-08-03T10:21:48.478Z,105920.00
2018-08-03T10:22:48.454Z,106528.00
2018-08-03T10:23:48.443Z,110528.00
2018-08-03T10:24:48.429Z,112896.00
2018-08-03T10:25:48.409Z,113824.00
2018-08-03T10:26:48.394Z,114496.00
2018-08-03T10:27:48.369Z,114560.00
2018-08-03T10:28:48.347Z,117568.00
2018-08-03T10:29:48.379Z,112192.00
2018-08-03T10:30:48.399Z,103712.00
2018-08-03T10:31:48.312Z,111872.00
2018-08-03T10:32:48.323Z,123104.00
2018-08-03T10:33:48.299Z,112288.00
2018-08-03T10:34:48.310Z,97408.00
2018-08-03T10:35:48.380Z,110624.00
2018-08-03T10:36:48.237Z,121984.00
2018-08-03T10:37:48.246Z,122880.00
2018-08-03T10:38:48.212Z,115456.00
2018-08-03T10:39:48.194Z,111136.00
2018-08-03T10:40:49.049Z,115072.00
2018-08-03T10:41:48.155Z,120864.00
2018-08-03T10:42:48.151Z,127776.00
2018-08-03T10:43:48.125Z,126944.00
2018-08-03T10:44:48.107Z,120608.00
2018-08-03T10:45:48.095Z,125760.00
2018-08-03T10:46:48.066Z,128288.00
2018-08-03T10:47:48.063Z,116640.00
2018-08-03T10:48:48.120Z,110720.00
2018-08-03T10:49:48.029Z,118752.00
2018-08-03T10:50:48.007Z,123680.00
2018-08-03T10:51:48.015Z,121088.00
2018-08-03T10:52:47.991Z,118176.00
2018-08-03T10:53:47.987Z,124608.00
2018-08-03T10:54:47.948Z,117984.00
2018-08-03T10:55:47.928Z,107328.00
2018-08-03T10:56:47.929Z,108736.00
2018-08-03T10:57:47.900Z,104448.00
2018-08-03T10:58:47.906Z,89952.00
2018-08-03T10:59:47.914Z,116704.00
2018-08-03T11:00:47.861Z,103200.00
2018-08-03T11:01:47.841Z,110752.00
2018-08-03T11:02:47.821Z,110080.00
2018-08-03T11:03:47.842Z,102272.00
2018-08-03T11:04:47.805Z,103072.00
2018-08-03T11:05:47.785Z,122848.00
2018-08-03T11:06:47.827Z,130496.00
2018-08-03T11:07:47.744Z,127200.00
2018-08-03T11:08:47.733Z,67808.00
2018-08-03T11:09:47.722Z,109856.00
2018-08-03T11:10:47.757Z,50784.00
2018-08-03T11:11:47.695Z,32832.00
2018-08-03T11:12:47.687Z,32352.00
2018-08-03T11:13:47.715Z,33184.00
2018-08-03T11:14:47.651Z,34592.00
2018-08-03T11:15:47.630Z,37856.00
2018-08-03T11:16:47.619Z,37472.00
2018-08-03T11:17:47.609Z,44096.00
2018-08-03T11:18:47.573Z,80992.00
2018-08-03T11:19:47.579Z,37280.00
2018-08-03T11:20:47.538Z,40192.00
2018-08-03T11:21:47.528Z,109568.00
2018-08-03T11:22:47.515Z,104128.00
2018-08-03T11:23:47.483Z,100992.00
2018-08-03T11:24:47.479Z,123936.00
2018-08-03T11:25:47.470Z,45728.00
2018-08-03T11:26:47.437Z,55360.00
2018-08-03T11:27:47.445Z,110944.00
2018-08-03T11:28:47.409Z,117696.00
2018-08-03T11:29:47.446Z,118880.00
2018-08-03T11:30:47.388Z,109952.00
2018-08-03T11:31:47.373Z,112512.00
2018-08-03T11:32:47.335Z,128000.00
2018-08-03T11:33:47.314Z,131840.00
2018-08-03T11:34:47.297Z,127136.00
2018-08-03T11:35:47.292Z,121408.00
2018-08-03T11:36:47.308Z,121952.00
2018-08-03T11:37:47.234Z,112192.00
2018-08-03T11:38:47.263Z,111104.00
2018-08-03T11:39:47.225Z,116480.00
2018-08-03T11:40:47.247Z,111552.00
2018-08-03T11:41:47.195Z,108096.00
2018-08-03T11:42:47.170Z,123168.00
2018-08-03T11:43:47.205Z,130560.00
2018-08-03T11:44:47.167Z,118944.00
2018-08-03T11:45:47.110Z,36352.00
2018-08-03T11:46:47.091Z,33536.00
2018-08-03T11:47:47.073Z,35680.00
2018-08-03T11:48:47.062Z,116096.00
2018-08-03T11:49:47.059Z,121600.00
2018-08-03T11:50:47.032Z,78304.00
2018-08-03T11:51:47.003Z,109696.00
2018-08-03T11:52:47.005Z,71136.00
2018-08-03T11:53:46.968Z,84704.00
2018-08-03T11:54:46.945Z,51744.00
2018-08-03T11:55:46.963Z,34464.00
2018-08-03T11:56:46.921Z,35744.00
2018-08-03T11:57:46.895Z,39904.00
2018-08-03T11:58:46.886Z,50304.00
2018-08-03T11:59:46.861Z,41760.00
2018-08-03T12:00:46.865Z,48448.00
2018-08-03T12:01:46.848Z,62464.00
2018-08-03T12:02:46.809Z,61856.00
2018-08-03T12:03:46.784Z,61760.00
2018-08-03T12:04:46.783Z,49472.00
2018-08-03T12:05:46.765Z,31488.00
2018-08-03T12:06:46.738Z,29408.00
2018-08-03T12:07:46.722Z,28992.00